sensor_id;sensor_type;location;lat;lon;timestamp;P1;durP1;ratioP1;P2;durP2;ratioP2
13327;SDS011;6733;51.044;3.746;2022-08-11T00:01:16;9.20;;;4.43;;
13327;SDS011;6733;51.044;3.746;2022-08-11T00:03:45;7.43;;;4.30;;
13327;SDS011;6733;51.044;3.746;2022-08-11T00:06:15;6.90;;;4.10;;
13327;SDS011;6733;51.044;3.746;2022-08-11T00:09:03;6.70;;;4.10;;
13327;SDS011;6733;51.044;3.746;2022-08-11T00:11:36;7.87;;;4.20;;
13327;SDS011;6733;51.044;3.746;2022-08-11T00:14:13;7.47;;;4.23;;
13327;SDS011;6733;51.044;3.746;2022-08-11T00:16:43;8.87;;;4.30;;
13327;SDS011;6733;51.044;3.746;2022-08-11T00:19:20;7.63;;;4.90;;
13327;SDS011;6733;51.044;3.746;2022-08-11T00:21:47;5.97;;;4.80;;
13327;SDS011;6733;51.044;3.746;2022-08-11T00:24:14;5.47;;;4.37;;
13327;SDS011;6733;51.044;3.746;2022-08-11T00:26:45;4.83;;;4.07;;
13327;SDS011;6733;51.044;3.746;2022-08-11T00:29:13;5.60;;;4.53;;
13327;SDS011;6733;51.044;3.746;2022-08-11T00:31:48;5.07;;;4.57;;
13327;SDS011;6733;51.044;3.746;2022-08-11T00:34:17;8.43;;;4.43;;
13327;SDS011;6733;51.044;3.746;2022-08-11T00:36:53;6.30;;;4.70;;
13327;SDS011;6733;51.044;3.746;2022-08-11T00:39:24;7.03;;;4.30;;
13327;SDS011;6733;51.044;3.746;2022-08-11T00:47:16;6.37;;;4.30;;
13327;SDS011;6733;51.044;3.746;2022-08-11T00:55:37;8.33;;;4.57;;
13327;SDS011;6733;51.044;3.746;2022-08-11T01:07:20;6.80;;;4.60;;
13327;SDS011;6733;51.044;3.746;2022-08-11T01:09:57;4.80;;;4.30;;
13327;SDS011;6733;51.044;3.746;2022-08-11T01:12:34;5.43;;;4.77;;
13327;SDS011;6733;51.044;3.746;2022-08-11T01:32:55;4.70;;;4.30;;
13327;SDS011;6733;51.044;3.746;2022-08-11T01:44:06;5.73;;;4.70;;
13327;SDS011;6733;51.044;3.746;2022-08-11T01:50:20;6.53;;;5.20;;
13327;SDS011;6733;51.044;3.746;2022-08-11T01:55:33;9.33;;;4.83;;
13327;SDS011;6733;51.044;3.746;2022-08-11T01:58:32;8.00;;;4.93;;
13327;SDS011;6733;51.044;3.746;2022-08-11T02:01:12;8.30;;;5.10;;
13327;SDS011;6733;51.044;3.746;2022-08-11T02:09:41;7.73;;;4.83;;
13327;SDS011;6733;51.044;3.746;2022-08-11T02:12:49;7.53;;;5.07;;
13327;SDS011;6733;51.044;3.746;2022-08-11T02:20:59;5.90;;;4.87;;
13327;SDS011;6733;51.044;3.746;2022-08-11T02:23:54;6.17;;;4.80;;
13327;SDS011;6733;51.044;3.746;2022-08-11T02:26:33;8.63;;;4.90;;
13327;SDS011;6733;51.044;3.746;2022-08-11T02:29:12;7.23;;;5.13;;
13327;SDS011;6733;51.044;3.746;2022-08-11T02:34:50;6.00;;;5.00;;
13327;SDS011;6733;51.044;3.746;2022-08-11T02:43:08;6.93;;;5.47;;
13327;SDS011;6733;51.044;3.746;2022-08-11T02:46:00;6.10;;;5.50;;
13327;SDS011;6733;51.044;3.746;2022-08-11T02:56:57;6.07;;;4.77;;
13327;SDS011;6733;51.044;3.746;2022-08-11T02:59:42;6.03;;;5.43;;
13327;SDS011;6733;51.044;3.746;2022-08-11T03:17:46;7.47;;;4.57;;
13327;SDS011;6733;51.044;3.746;2022-08-11T03:22:33;8.33;;;4.83;;
13327;SDS011;6733;51.044;3.746;2022-08-11T03:25:14;7.67;;;5.93;;
13327;SDS011;6733;51.044;3.746;2022-08-11T03:28:00;6.70;;;5.17;;
13327;SDS011;6733;51.044;3.746;2022-08-11T03:33:17;8.87;;;5.63;;
13327;SDS011;6733;51.044;3.746;2022-08-11T03:41:31;5.73;;;4.93;;
13327;SDS011;6733;51.044;3.746;2022-08-11T03:52:31;7.40;;;5.27;;
13327;SDS011;6733;51.044;3.746;2022-08-11T03:56:11;8.00;;;5.73;;
13327;SDS011;6733;51.044;3.746;2022-08-11T04:06:48;9.37;;;6.10;;
13327;SDS011;6733;51.044;3.746;2022-08-11T04:12:11;8.23;;;6.20;;
13327;SDS011;6733;51.044;3.746;2022-08-11T04:52:54;6.17;;;5.57;;
13327;SDS011;6733;51.044;3.746;2022-08-11T05:02:03;6.67;;;5.57;;
13327;SDS011;6733;51.044;3.746;2022-08-11T05:07:56;10.13;;;6.30;;
13327;SDS011;6733;51.044;3.746;2022-08-11T05:13:29;6.67;;;5.77;;
13327;SDS011;6733;51.044;3.746;2022-08-11T05:16:26;7.37;;;6.13;;
13327;SDS011;6733;51.044;3.746;2022-08-11T05:19:16;6.63;;;5.93;;
13327;SDS011;6733;51.044;3.746;2022-08-11T05:22:02;6.27;;;5.67;;
13327;SDS011;6733;51.044;3.746;2022-08-11T05:25:09;12.13;;;6.00;;
13327;SDS011;6733;51.044;3.746;2022-08-11T05:28:02;15.07;;;6.70;;
13327;SDS011;6733;51.044;3.746;2022-08-11T05:30:57;8.67;;;5.83;;
13327;SDS011;6733;51.044;3.746;2022-08-11T05:39:41;10.53;;;6.33;;
13327;SDS011;6733;51.044;3.746;2022-08-11T05:42:29;8.43;;;5.90;;
13327;SDS011;6733;51.044;3.746;2022-08-11T05:45:17;11.40;;;6.27;;
13327;SDS011;6733;51.044;3.746;2022-08-11T05:48:02;10.53;;;6.50;;
13327;SDS011;6733;51.044;3.746;2022-08-11T05:50:54;7.67;;;6.50;;
13327;SDS011;6733;51.044;3.746;2022-08-11T05:56:43;9.50;;;6.70;;
13327;SDS011;6733;51.044;3.746;2022-08-11T05:59:16;12.27;;;6.83;;
13327;SDS011;6733;51.044;3.746;2022-08-11T06:01:43;8.67;;;6.40;;
13327;SDS011;6733;51.044;3.746;2022-08-11T06:04:23;10.60;;;7.00;;
13327;SDS011;6733;51.044;3.746;2022-08-11T06:11:53;13.27;;;7.60;;
13327;SDS011;6733;51.044;3.746;2022-08-11T06:14:24;13.60;;;7.43;;
13327;SDS011;6733;51.044;3.746;2022-08-11T06:16:52;20.83;;;7.87;;
13327;SDS011;6733;51.044;3.746;2022-08-11T06:19:22;11.77;;;7.23;;
13327;SDS011;6733;51.044;3.746;2022-08-11T06:22:00;9.93;;;7.20;;
13327;SDS011;6733;51.044;3.746;2022-08-11T06:24:28;10.83;;;7.40;;
13327;SDS011;6733;51.044;3.746;2022-08-11T06:26:56;12.87;;;7.23;;
13327;SDS011;6733;51.044;3.746;2022-08-11T06:29:23;8.13;;;6.40;;
13327;SDS011;6733;51.044;3.746;2022-08-11T06:32:01;11.63;;;7.33;;
13327;SDS011;6733;51.044;3.746;2022-08-11T06:37:15;12.50;;;7.60;;
13327;SDS011;6733;51.044;3.746;2022-08-11T06:39:51;9.97;;;6.43;;
13327;SDS011;6733;51.044;3.746;2022-08-11T06:42:33;12.13;;;6.53;;
13327;SDS011;6733;51.044;3.746;2022-08-11T06:45:36;12.00;;;6.73;;
13327;SDS011;6733;51.044;3.746;2022-08-11T06:48:22;10.27;;;5.80;;
13327;SDS011;6733;51.044;3.746;2022-08-11T06:50:55;8.33;;;6.00;;
13327;SDS011;6733;51.044;3.746;2022-08-11T06:53:59;9.27;;;6.57;;
13327;SDS011;6733;51.044;3.746;2022-08-11T06:56:26;11.43;;;6.57;;
13327;SDS011;6733;51.044;3.746;2022-08-11T06:59:15;9.73;;;6.73;;
13327;SDS011;6733;51.044;3.746;2022-08-11T07:04:40;10.50;;;6.40;;
13327;SDS011;6733;51.044;3.746;2022-08-11T07:13:53;8.73;;;5.67;;
13327;SDS011;6733;51.044;3.746;2022-08-11T07:16:43;10.67;;;5.60;;
13327;SDS011;6733;51.044;3.746;2022-08-11T07:19:12;10.13;;;5.87;;
13327;SDS011;6733;51.044;3.746;2022-08-11T07:22:01;13.77;;;7.07;;
13327;SDS011;6733;51.044;3.746;2022-08-11T07:24:54;7.53;;;6.10;;
13327;SDS011;6733;51.044;3.746;2022-08-11T07:28:01;10.80;;;5.70;;
13327;SDS011;6733;51.044;3.746;2022-08-11T07:30:47;10.43;;;5.93;;
13327;SDS011;6733;51.044;3.746;2022-08-11T07:33:18;7.83;;;5.60;;
13327;SDS011;6733;51.044;3.746;2022-08-11T07:35:55;7.87;;;5.67;;
13327;SDS011;6733;51.044;3.746;2022-08-11T07:38:24;8.37;;;4.93;;
13327;SDS011;6733;51.044;3.746;2022-08-11T07:41:11;6.97;;;5.17;;
13327;SDS011;6733;51.044;3.746;2022-08-11T07:43:42;8.33;;;4.90;;
13327;SDS011;6733;51.044;3.746;2022-08-11T07:46:13;9.43;;;4.60;;
13327;SDS011;6733;51.044;3.746;2022-08-11T07:49:00;8.77;;;4.40;;
13327;SDS011;6733;51.044;3.746;2022-08-11T07:51:47;9.30;;;4.77;;
13327;SDS011;6733;51.044;3.746;2022-08-11T07:54:33;8.47;;;3.93;;
13327;SDS011;6733;51.044;3.746;2022-08-11T07:57:02;8.00;;;5.13;;
13327;SDS011;6733;51.044;3.746;2022-08-11T07:59:49;6.40;;;3.93;;
13327;SDS011;6733;51.044;3.746;2022-08-11T08:02:34;10.80;;;4.43;;
13327;SDS011;6733;51.044;3.746;2022-08-11T08:05:19;8.10;;;4.70;;
13327;SDS011;6733;51.044;3.746;2022-08-11T08:08:06;8.87;;;4.67;;
13327;SDS011;6733;51.044;3.746;2022-08-11T08:10:52;7.13;;;4.40;;
13327;SDS011;6733;51.044;3.746;2022-08-11T08:13:40;12.27;;;4.20;;
13327;SDS011;6733;51.044;3.746;2022-08-11T08:16:26;7.27;;;4.50;;
13327;SDS011;6733;51.044;3.746;2022-08-11T08:19:14;10.53;;;4.30;;
13327;SDS011;6733;51.044;3.746;2022-08-11T08:21:43;11.57;;;4.23;;
13327;SDS011;6733;51.044;3.746;2022-08-11T08:24:11;10.43;;;4.40;;
13327;SDS011;6733;51.044;3.746;2022-08-11T08:26:39;11.10;;;4.50;;
13327;SDS011;6733;51.044;3.746;2022-08-11T08:29:24;7.43;;;3.92;;
13327;SDS011;6733;51.044;3.746;2022-08-11T08:32:10;8.75;;;4.40;;
13327;SDS011;6733;51.044;3.746;2022-08-11T08:34:37;8.90;;;4.40;;
13327;SDS011;6733;51.044;3.746;2022-08-11T08:37:05;12.85;;;4.80;;
13327;SDS011;6733;51.044;3.746;2022-08-11T08:39:32;11.63;;;4.38;;
13327;SDS011;6733;51.044;3.746;2022-08-11T08:41:59;11.02;;;4.43;;
13327;SDS011;6733;51.044;3.746;2022-08-11T08:44:30;10.07;;;4.18;;
13327;SDS011;6733;51.044;3.746;2022-08-11T08:47:00;6.60;;;3.75;;
13327;SDS011;6733;51.044;3.746;2022-08-11T08:49:30;7.45;;;4.15;;
13327;SDS011;6733;51.044;3.746;2022-08-11T08:52:01;8.77;;;3.85;;
13327;SDS011;6733;51.044;3.746;2022-08-11T08:54:37;12.07;;;4.38;;
13327;SDS011;6733;51.044;3.746;2022-08-11T08:57:06;10.10;;;4.25;;
13327;SDS011;6733;51.044;3.746;2022-08-11T08:59:38;8.00;;;4.07;;
13327;SDS011;6733;51.044;3.746;2022-08-11T09:02:06;5.22;;;3.58;;
13327;SDS011;6733;51.044;3.746;2022-08-11T09:04:37;8.40;;;4.15;;
13327;SDS011;6733;51.044;3.746;2022-08-11T09:07:09;8.43;;;3.72;;
13327;SDS011;6733;51.044;3.746;2022-08-11T09:09:41;7.90;;;3.83;;
13327;SDS011;6733;51.044;3.746;2022-08-11T09:12:16;11.50;;;4.13;;
13327;SDS011;6733;51.044;3.746;2022-08-11T09:14:45;5.55;;;3.78;;
13327;SDS011;6733;51.044;3.746;2022-08-11T09:17:33;5.80;;;4.43;;
13327;SDS011;6733;51.044;3.746;2022-08-11T09:20:04;7.70;;;4.15;;
13327;SDS011;6733;51.044;3.746;2022-08-11T09:22:37;7.05;;;3.42;;
13327;SDS011;6733;51.044;3.746;2022-08-11T09:25:24;6.28;;;3.45;;
13327;SDS011;6733;51.044;3.746;2022-08-11T09:28:12;11.15;;;3.70;;
13327;SDS011;6733;51.044;3.746;2022-08-11T09:30:40;5.85;;;3.22;;
13327;SDS011;6733;51.044;3.746;2022-08-11T09:33:08;9.45;;;3.75;;
13327;SDS011;6733;51.044;3.746;2022-08-11T09:35:38;5.15;;;3.28;;
13327;SDS011;6733;51.044;3.746;2022-08-11T09:38:08;5.90;;;3.40;;
13327;SDS011;6733;51.044;3.746;2022-08-11T09:40:57;8.38;;;3.63;;
13327;SDS011;6733;51.044;3.746;2022-08-11T09:43:26;5.97;;;3.53;;
13327;SDS011;6733;51.044;3.746;2022-08-11T09:46:12;5.78;;;3.88;;
13327;SDS011;6733;51.044;3.746;2022-08-11T09:48:44;8.30;;;3.70;;
13327;SDS011;6733;51.044;3.746;2022-08-11T09:51:12;5.68;;;3.50;;
13327;SDS011;6733;51.044;3.746;2022-08-11T09:53:39;5.78;;;4.18;;
13327;SDS011;6733;51.044;3.746;2022-08-11T09:56:11;6.82;;;3.80;;
13327;SDS011;6733;51.044;3.746;2022-08-11T09:58:58;10.55;;;3.95;;
13327;SDS011;6733;51.044;3.746;2022-08-11T10:01:31;8.77;;;3.25;;
13327;SDS011;6733;51.044;3.746;2022-08-11T10:04:11;6.30;;;3.20;;
13327;SDS011;6733;51.044;3.746;2022-08-11T10:06:43;3.95;;;3.25;;
13327;SDS011;6733;51.044;3.746;2022-08-11T10:09:45;5.03;;;3.30;;
13327;SDS011;6733;51.044;3.746;2022-08-11T10:14:52;6.68;;;3.05;;
13327;SDS011;6733;51.044;3.746;2022-08-11T10:17:48;7.80;;;3.25;;
13327;SDS011;6733;51.044;3.746;2022-08-11T10:20:39;5.90;;;3.75;;
13327;SDS011;6733;51.044;3.746;2022-08-11T10:23:07;5.40;;;2.78;;
13327;SDS011;6733;51.044;3.746;2022-08-11T10:25:53;8.23;;;3.00;;
13327;SDS011;6733;51.044;3.746;2022-08-11T10:28:38;4.50;;;3.20;;
13327;SDS011;6733;51.044;3.746;2022-08-11T10:31:05;6.28;;;3.50;;
13327;SDS011;6733;51.044;3.746;2022-08-11T10:33:49;3.95;;;3.03;;
13327;SDS011;6733;51.044;3.746;2022-08-11T10:36:26;6.57;;;2.88;;
13327;SDS011;6733;51.044;3.746;2022-08-11T10:38:54;7.95;;;3.13;;
13327;SDS011;6733;51.044;3.746;2022-08-11T10:41:22;6.35;;;3.97;;
13327;SDS011;6733;51.044;3.746;2022-08-11T10:44:08;3.75;;;2.83;;
13327;SDS011;6733;51.044;3.746;2022-08-11T10:46:36;3.58;;;3.10;;
13327;SDS011;6733;51.044;3.746;2022-08-11T10:49:22;6.03;;;3.38;;
13327;SDS011;6733;51.044;3.746;2022-08-11T10:51:51;7.65;;;3.42;;
13327;SDS011;6733;51.044;3.746;2022-08-11T10:54:39;4.10;;;3.13;;
13327;SDS011;6733;51.044;3.746;2022-08-11T10:57:26;6.32;;;3.05;;
13327;SDS011;6733;51.044;3.746;2022-08-11T11:00:12;4.40;;;3.50;;
13327;SDS011;6733;51.044;3.746;2022-08-11T11:02:42;4.38;;;3.00;;
13327;SDS011;6733;51.044;3.746;2022-08-11T11:05:20;3.25;;;2.95;;
13327;SDS011;6733;51.044;3.746;2022-08-11T11:10:49;4.43;;;3.00;;
13327;SDS011;6733;51.044;3.746;2022-08-11T11:13:16;9.52;;;3.30;;
13327;SDS011;6733;51.044;3.746;2022-08-11T11:16:04;7.53;;;3.05;;
13327;SDS011;6733;51.044;3.746;2022-08-11T11:18:50;6.43;;;3.40;;
13327;SDS011;6733;51.044;3.746;2022-08-11T11:21:17;5.80;;;3.17;;
13327;SDS011;6733;51.044;3.746;2022-08-11T11:32:08;5.43;;;3.22;;
13327;SDS011;6733;51.044;3.746;2022-08-11T11:37:52;5.35;;;3.00;;
13327;SDS011;6733;51.044;3.746;2022-08-11T11:40:21;4.07;;;3.30;;
13327;SDS011;6733;51.044;3.746;2022-08-11T11:42:49;7.25;;;3.28;;
13327;SDS011;6733;51.044;3.746;2022-08-11T11:45:17;5.47;;;3.00;;
13327;SDS011;6733;51.044;3.746;2022-08-11T11:47:46;5.00;;;3.25;;
13327;SDS011;6733;51.044;3.746;2022-08-11T11:50:21;5.47;;;3.33;;
13327;SDS011;6733;51.044;3.746;2022-08-11T11:53:08;8.45;;;3.38;;
13327;SDS011;6733;51.044;3.746;2022-08-11T11:55:36;5.10;;;3.22;;
13327;SDS011;6733;51.044;3.746;2022-08-11T11:58:03;7.00;;;2.95;;
13327;SDS011;6733;51.044;3.746;2022-08-11T12:00:50;5.93;;;3.47;;
13327;SDS011;6733;51.044;3.746;2022-08-11T12:03:36;6.00;;;3.80;;
13327;SDS011;6733;51.044;3.746;2022-08-11T12:06:05;4.85;;;3.88;;
13327;SDS011;6733;51.044;3.746;2022-08-11T12:08:32;6.78;;;3.65;;
13327;SDS011;6733;51.044;3.746;2022-08-11T12:11:00;9.25;;;3.78;;
13327;SDS011;6733;51.044;3.746;2022-08-11T12:13:47;5.97;;;3.30;;
13327;SDS011;6733;51.044;3.746;2022-08-11T12:16:19;5.43;;;3.38;;
13327;SDS011;6733;51.044;3.746;2022-08-11T12:18:48;6.53;;;3.33;;
13327;SDS011;6733;51.044;3.746;2022-08-11T12:21:16;7.70;;;3.20;;
13327;SDS011;6733;51.044;3.746;2022-08-11T12:23:44;5.75;;;3.20;;
13327;SDS011;6733;51.044;3.746;2022-08-11T12:26:31;4.00;;;3.33;;
13327;SDS011;6733;51.044;3.746;2022-08-11T12:29:18;4.20;;;3.20;;
13327;SDS011;6733;51.044;3.746;2022-08-11T12:31:45;5.70;;;3.47;;
13327;SDS011;6733;51.044;3.746;2022-08-11T12:34:14;6.97;;;4.00;;
13327;SDS011;6733;51.044;3.746;2022-08-11T12:36:42;6.95;;;3.40;;
13327;SDS011;6733;51.044;3.746;2022-08-11T12:39:20;5.65;;;3.50;;
13327;SDS011;6733;51.044;3.746;2022-08-11T12:42:10;4.22;;;3.65;;
13327;SDS011;6733;51.044;3.746;2022-08-11T12:45:02;12.75;;;3.97;;
13327;SDS011;6733;51.044;3.746;2022-08-11T12:47:58;10.75;;;4.63;;
13327;SDS011;6733;51.044;3.746;2022-08-11T12:50:57;7.88;;;3.90;;
13327;SDS011;6733;51.044;3.746;2022-08-11T12:53:53;13.93;;;6.40;;
13327;SDS011;6733;51.044;3.746;2022-08-11T12:56:23;4.95;;;3.20;;
13327;SDS011;6733;51.044;3.746;2022-08-11T12:59:11;9.35;;;5.70;;
13327;SDS011;6733;51.044;3.746;2022-08-11T13:01:56;11.63;;;4.90;;
13327;SDS011;6733;51.044;3.746;2022-08-11T13:04:41;6.63;;;3.55;;
13327;SDS011;6733;51.044;3.746;2022-08-11T13:07:27;9.65;;;3.30;;
13327;SDS011;6733;51.044;3.746;2022-08-11T13:09:55;7.38;;;3.10;;
13327;SDS011;6733;51.044;3.746;2022-08-11T13:12:22;6.47;;;3.28;;
13327;SDS011;6733;51.044;3.746;2022-08-11T13:15:13;3.40;;;3.08;;
13327;SDS011;6733;51.044;3.746;2022-08-11T13:17:42;5.63;;;3.28;;
13327;SDS011;6733;51.044;3.746;2022-08-11T13:20:11;5.50;;;3.35;;
13327;SDS011;6733;51.044;3.746;2022-08-11T13:22:38;10.60;;;3.80;;
13327;SDS011;6733;51.044;3.746;2022-08-11T13:25:10;7.93;;;3.75;;
13327;SDS011;6733;51.044;3.746;2022-08-11T13:27:41;6.53;;;3.60;;
13327;SDS011;6733;51.044;3.746;2022-08-11T13:30:08;6.40;;;3.85;;
13327;SDS011;6733;51.044;3.746;2022-08-11T13:32:54;9.82;;;4.07;;
13327;SDS011;6733;51.044;3.746;2022-08-11T13:35:21;5.78;;;3.20;;
13327;SDS011;6733;51.044;3.746;2022-08-11T13:37:47;6.50;;;3.38;;
13327;SDS011;6733;51.044;3.746;2022-08-11T13:40:16;5.05;;;3.63;;
13327;SDS011;6733;51.044;3.746;2022-08-11T13:42:44;3.67;;;3.35;;
13327;SDS011;6733;51.044;3.746;2022-08-11T13:45:11;5.40;;;3.28;;
13327;SDS011;6733;51.044;3.746;2022-08-11T13:47:38;4.75;;;3.45;;
13327;SDS011;6733;51.044;3.746;2022-08-11T13:50:06;7.22;;;4.15;;
13327;SDS011;6733;51.044;3.746;2022-08-11T13:52:33;8.35;;;3.60;;
13327;SDS011;6733;51.044;3.746;2022-08-11T13:55:04;8.57;;;3.45;;
13327;SDS011;6733;51.044;3.746;2022-08-11T13:57:32;4.38;;;3.50;;
13327;SDS011;6733;51.044;3.746;2022-08-11T13:59:59;5.90;;;3.35;;
13327;SDS011;6733;51.044;3.746;2022-08-11T14:02:37;5.90;;;3.42;;
13327;SDS011;6733;51.044;3.746;2022-08-11T14:07:51;8.35;;;3.63;;
13327;SDS011;6733;51.044;3.746;2022-08-11T14:10:21;6.88;;;3.60;;
13327;SDS011;6733;51.044;3.746;2022-08-11T14:12:53;9.85;;;3.45;;
13327;SDS011;6733;51.044;3.746;2022-08-11T14:15:46;7.60;;;3.33;;
13327;SDS011;6733;51.044;3.746;2022-08-11T14:18:16;4.88;;;3.28;;
13327;SDS011;6733;51.044;3.746;2022-08-11T14:20:46;7.22;;;3.38;;
13327;SDS011;6733;51.044;3.746;2022-08-11T14:23:39;4.05;;;3.60;;
13327;SDS011;6733;51.044;3.746;2022-08-11T14:26:08;4.05;;;3.35;;
13327;SDS011;6733;51.044;3.746;2022-08-11T14:31:28;6.53;;;4.18;;
13327;SDS011;6733;51.044;3.746;2022-08-11T14:33:58;8.55;;;3.33;;
13327;SDS011;6733;51.044;3.746;2022-08-11T14:36:38;3.80;;;3.33;;
13327;SDS011;6733;51.044;3.746;2022-08-11T14:39:07;3.70;;;3.40;;
13327;SDS011;6733;51.044;3.746;2022-08-11T14:41:42;3.72;;;3.40;;
13327;SDS011;6733;51.044;3.746;2022-08-11T14:44:44;6.88;;;3.50;;
13327;SDS011;6733;51.044;3.746;2022-08-11T14:47:49;8.88;;;3.40;;
13327;SDS011;6733;51.044;3.746;2022-08-11T14:50:25;6.47;;;3.40;;
13327;SDS011;6733;51.044;3.746;2022-08-11T14:55:22;7.35;;;3.40;;
13327;SDS011;6733;51.044;3.746;2022-08-11T14:58:10;9.82;;;3.45;;
13327;SDS011;6733;51.044;3.746;2022-08-11T15:00:44;6.63;;;3.60;;
13327;SDS011;6733;51.044;3.746;2022-08-11T15:03:12;4.78;;;3.30;;
13327;SDS011;6733;51.044;3.746;2022-08-11T15:05:41;6.07;;;3.30;;
13327;SDS011;6733;51.044;3.746;2022-08-11T15:08:09;7.25;;;3.17;;
13327;SDS011;6733;51.044;3.746;2022-08-11T15:10:38;5.50;;;3.47;;
13327;SDS011;6733;51.044;3.746;2022-08-11T15:13:05;5.93;;;3.50;;
13327;SDS011;6733;51.044;3.746;2022-08-11T15:15:32;5.43;;;3.50;;
13327;SDS011;6733;51.044;3.746;2022-08-11T15:18:18;7.00;;;3.70;;
13327;SDS011;6733;51.044;3.746;2022-08-11T15:20:48;4.55;;;3.55;;
13327;SDS011;6733;51.044;3.746;2022-08-11T15:23:34;5.43;;;3.65;;
13327;SDS011;6733;51.044;3.746;2022-08-11T15:26:38;7.05;;;3.67;;
13327;SDS011;6733;51.044;3.746;2022-08-11T15:29:24;7.10;;;3.03;;
13327;SDS011;6733;51.044;3.746;2022-08-11T15:32:12;6.10;;;3.28;;
13327;SDS011;6733;51.044;3.746;2022-08-11T15:34:54;5.85;;;3.15;;
13327;SDS011;6733;51.044;3.746;2022-08-11T15:37:42;8.95;;;3.22;;
13327;SDS011;6733;51.044;3.746;2022-08-11T15:40:29;7.88;;;3.65;;
13327;SDS011;6733;51.044;3.746;2022-08-11T15:43:20;6.20;;;3.10;;
13327;SDS011;6733;51.044;3.746;2022-08-11T15:46:16;4.32;;;2.92;;
13327;SDS011;6733;51.044;3.746;2022-08-11T15:48:51;8.18;;;4.28;;
13327;SDS011;6733;51.044;3.746;2022-08-11T15:54:02;4.18;;;3.40;;
13327;SDS011;6733;51.044;3.746;2022-08-11T15:56:35;4.50;;;3.03;;
13327;SDS011;6733;51.044;3.746;2022-08-11T15:59:05;7.57;;;2.85;;
13327;SDS011;6733;51.044;3.746;2022-08-11T16:01:52;4.15;;;3.10;;
13327;SDS011;6733;51.044;3.746;2022-08-11T16:04:38;6.07;;;3.22;;
13327;SDS011;6733;51.044;3.746;2022-08-11T16:07:08;4.22;;;2.70;;
13327;SDS011;6733;51.044;3.746;2022-08-11T16:12:29;4.90;;;3.30;;
13327;SDS011;6733;51.044;3.746;2022-08-11T16:14:59;4.80;;;3.30;;
13327;SDS011;6733;51.044;3.746;2022-08-11T16:17:50;3.35;;;3.05;;
13327;SDS011;6733;51.044;3.746;2022-08-11T16:20:22;4.72;;;3.35;;
13327;SDS011;6733;51.044;3.746;2022-08-11T16:22:51;6.22;;;2.72;;
13327;SDS011;6733;51.044;3.746;2022-08-11T16:25:21;6.05;;;3.45;;
13327;SDS011;6733;51.044;3.746;2022-08-11T16:27:49;5.38;;;3.10;;
13327;SDS011;6733;51.044;3.746;2022-08-11T16:30:32;7.05;;;3.17;;
13327;SDS011;6733;51.044;3.746;2022-08-11T16:33:00;5.75;;;3.50;;
13327;SDS011;6733;51.044;3.746;2022-08-11T16:35:31;5.57;;;3.15;;
13327;SDS011;6733;51.044;3.746;2022-08-11T16:38:18;4.75;;;3.10;;
13327;SDS011;6733;51.044;3.746;2022-08-11T16:41:04;6.43;;;3.55;;
13327;SDS011;6733;51.044;3.746;2022-08-11T16:43:34;4.72;;;3.20;;
13327;SDS011;6733;51.044;3.746;2022-08-11T16:46:32;8.57;;;3.35;;
13327;SDS011;6733;51.044;3.746;2022-08-11T16:49:06;7.70;;;3.65;;
13327;SDS011;6733;51.044;3.746;2022-08-11T16:51:36;4.53;;;3.10;;
13327;SDS011;6733;51.044;3.746;2022-08-11T16:54:02;6.70;;;3.15;;
13327;SDS011;6733;51.044;3.746;2022-08-11T16:56:31;6.03;;;3.60;;
13327;SDS011;6733;51.044;3.746;2022-08-11T16:59:01;6.70;;;3.30;;
13327;SDS011;6733;51.044;3.746;2022-08-11T17:07:18;5.20;;;3.45;;
13327;SDS011;6733;51.044;3.746;2022-08-11T17:10:05;7.55;;;3.60;;
13327;SDS011;6733;51.044;3.746;2022-08-11T17:12:52;5.32;;;3.85;;
13327;SDS011;6733;51.044;3.746;2022-08-11T17:15:36;3.70;;;3.40;;
13327;SDS011;6733;51.044;3.746;2022-08-11T17:18:24;6.93;;;3.47;;
13327;SDS011;6733;51.044;3.746;2022-08-11T17:21:06;4.68;;;3.65;;
13327;SDS011;6733;51.044;3.746;2022-08-11T17:23:37;3.95;;;3.60;;
13327;SDS011;6733;51.044;3.746;2022-08-11T17:26:19;7.97;;;3.50;;
13327;SDS011;6733;51.044;3.746;2022-08-11T17:29:20;7.70;;;3.28;;
13327;SDS011;6733;51.044;3.746;2022-08-11T17:32:07;5.93;;;2.95;;
13327;SDS011;6733;51.044;3.746;2022-08-11T17:34:57;5.13;;;3.53;;
13327;SDS011;6733;51.044;3.746;2022-08-11T17:37:44;6.55;;;3.63;;
13327;SDS011;6733;51.044;3.746;2022-08-11T17:40:13;5.65;;;3.40;;
13327;SDS011;6733;51.044;3.746;2022-08-11T17:42:45;9.10;;;4.10;;
13327;SDS011;6733;51.044;3.746;2022-08-11T17:45:32;9.02;;;3.72;;
13327;SDS011;6733;51.044;3.746;2022-08-11T17:48:17;5.05;;;3.35;;
13327;SDS011;6733;51.044;3.746;2022-08-11T17:50:51;5.13;;;3.28;;
13327;SDS011;6733;51.044;3.746;2022-08-11T17:53:18;7.22;;;3.70;;
13327;SDS011;6733;51.044;3.746;2022-08-11T17:56:04;8.48;;;3.83;;
13327;SDS011;6733;51.044;3.746;2022-08-11T17:58:50;4.32;;;3.15;;
13327;SDS011;6733;51.044;3.746;2022-08-11T18:01:37;9.00;;;3.55;;
13327;SDS011;6733;51.044;3.746;2022-08-11T18:04:06;6.05;;;3.30;;
13327;SDS011;6733;51.044;3.746;2022-08-11T18:06:35;9.93;;;3.58;;
13327;SDS011;6733;51.044;3.746;2022-08-11T18:09:16;3.88;;;3.08;;
13327;SDS011;6733;51.044;3.746;2022-08-11T18:12:03;5.90;;;3.50;;
13327;SDS011;6733;51.044;3.746;2022-08-11T18:14:52;6.65;;;4.80;;
13327;SDS011;6733;51.044;3.746;2022-08-11T18:17:38;6.32;;;4.18;;
13327;SDS011;6733;51.044;3.746;2022-08-11T18:20:24;8.30;;;3.53;;
13327;SDS011;6733;51.044;3.746;2022-08-11T18:23:12;6.57;;;3.60;;
13327;SDS011;6733;51.044;3.746;2022-08-11T18:26:01;5.57;;;3.70;;
13327;SDS011;6733;51.044;3.746;2022-08-11T18:28:50;10.60;;;4.72;;
13327;SDS011;6733;51.044;3.746;2022-08-11T18:31:41;6.07;;;4.00;;
13327;SDS011;6733;51.044;3.746;2022-08-11T18:34:35;9.55;;;4.18;;
13327;SDS011;6733;51.044;3.746;2022-08-11T18:37:28;6.32;;;3.88;;
13327;SDS011;6733;51.044;3.746;2022-08-11T18:40:19;8.23;;;4.05;;
13327;SDS011;6733;51.044;3.746;2022-08-11T18:43:09;7.38;;;4.00;;
13327;SDS011;6733;51.044;3.746;2022-08-11T18:46:05;7.10;;;3.85;;
13327;SDS011;6733;51.044;3.746;2022-08-11T18:49:00;7.65;;;3.97;;
13327;SDS011;6733;51.044;3.746;2022-08-11T18:51:49;9.55;;;5.18;;
13327;SDS011;6733;51.044;3.746;2022-08-11T18:54:37;6.82;;;3.70;;
13327;SDS011;6733;51.044;3.746;2022-08-11T18:57:25;6.38;;;3.83;;
13327;SDS011;6733;51.044;3.746;2022-08-11T19:00:11;6.95;;;4.20;;
13327;SDS011;6733;51.044;3.746;2022-08-11T19:02:56;8.48;;;4.80;;
13327;SDS011;6733;51.044;3.746;2022-08-11T19:05:43;6.40;;;4.00;;
13327;SDS011;6733;51.044;3.746;2022-08-11T19:08:34;5.38;;;3.90;;
13327;SDS011;6733;51.044;3.746;2022-08-11T19:11:24;7.47;;;3.95;;
13327;SDS011;6733;51.044;3.746;2022-08-11T19:14:13;5.05;;;4.53;;
13327;SDS011;6733;51.044;3.746;2022-08-11T19:16:59;10.75;;;3.90;;
13327;SDS011;6733;51.044;3.746;2022-08-11T19:19:45;7.18;;;4.50;;
13327;SDS011;6733;51.044;3.746;2022-08-11T19:22:30;8.27;;;4.35;;
13327;SDS011;6733;51.044;3.746;2022-08-11T19:25:17;5.53;;;4.15;;
13327;SDS011;6733;51.044;3.746;2022-08-11T19:28:04;11.95;;;4.38;;
13327;SDS011;6733;51.044;3.746;2022-08-11T19:30:51;5.57;;;3.90;;
13327;SDS011;6733;51.044;3.746;2022-08-11T19:33:37;8.82;;;3.90;;
13327;SDS011;6733;51.044;3.746;2022-08-11T19:36:23;6.82;;;4.40;;
13327;SDS011;6733;51.044;3.746;2022-08-11T19:39:10;5.63;;;4.18;;
13327;SDS011;6733;51.044;3.746;2022-08-11T19:41:57;6.90;;;4.15;;
13327;SDS011;6733;51.044;3.746;2022-08-11T19:44:43;6.75;;;4.07;;
13327;SDS011;6733;51.044;3.746;2022-08-11T19:47:28;5.25;;;4.53;;
13327;SDS011;6733;51.044;3.746;2022-08-11T19:50:16;9.13;;;4.70;;
13327;SDS011;6733;51.044;3.746;2022-08-11T19:53:02;7.47;;;4.18;;
13327;SDS011;6733;51.044;3.746;2022-08-11T19:55:47;6.95;;;4.47;;
13327;SDS011;6733;51.044;3.746;2022-08-11T19:58:35;8.67;;;4.23;;
13327;SDS011;6733;51.044;3.746;2022-08-11T20:01:21;5.73;;;4.83;;
13327;SDS011;6733;51.044;3.746;2022-08-11T20:04:06;8.43;;;5.43;;
13327;SDS011;6733;51.044;3.746;2022-08-11T20:06:51;9.30;;;4.60;;
13327;SDS011;6733;51.044;3.746;2022-08-11T20:09:38;8.67;;;5.20;;
13327;SDS011;6733;51.044;3.746;2022-08-11T20:12:26;6.83;;;5.80;;